sensor_id;sensor_type;location;lat;lon;timestamp;P1;durP1;ratioP1;P2;durP2;ratioP2
29320;SDS011;16323;51.130;6.612;2023-05-02T00:00:41;5.40;;;3.38;;
29320;SDS011;16323;51.130;6.612;2023-05-02T00:03:09;4.82;;;3.38;;
29320;SDS011;16323;51.130;6.612;2023-05-02T00:05:36;5.95;;;3.40;;
29320;SDS011;16323;51.130;6.612;2023-05-02T00:08:04;4.82;;;3.22;;
29320;SDS011;16323;51.130;6.612;2023-05-02T00:10:32;4.32;;;3.30;;
29320;SDS011;16323;51.130;6.612;2023-05-02T00:12:59;5.97;;;3.80;;
29320;SDS011;16323;51.130;6.612;2023-05-02T00:15:26;4.18;;;3.15;;
29320;SDS011;16323;51.130;6.612;2023-05-02T00:17:53;4.85;;;3.40;;
29320;SDS011;16323;51.130;6.612;2023-05-02T00:20:20;4.97;;;3.05;;
29320;SDS011;16323;51.130;6.612;2023-05-02T00:22:47;5.15;;;3.28;;
29320;SDS011;16323;51.130;6.612;2023-05-02T00:25:14;3.92;;;2.88;;
29320;SDS011;16323;51.130;6.612;2023-05-02T00:27:42;4.43;;;3.38;;
29320;SDS011;16323;51.130;6.612;2023-05-02T00:30:10;5.47;;;3.05;;
29320;SDS011;16323;51.130;6.612;2023-05-02T00:32:38;4.10;;;3.03;;
29320;SDS011;16323;51.130;6.612;2023-05-02T00:35:05;3.80;;;2.88;;
29320;SDS011;16323;51.130;6.612;2023-05-02T00:37:32;4.05;;;3.08;;
29320;SDS011;16323;51.130;6.612;2023-05-02T00:39:59;6.05;;;3.30;;
29320;SDS011;16323;51.130;6.612;2023-05-02T00:42:26;4.03;;;3.00;;
29320;SDS011;16323;51.130;6.612;2023-05-02T00:44:56;4.65;;;3.08;;
29320;SDS011;16323;51.130;6.612;2023-05-02T00:47:23;3.95;;;2.85;;
29320;SDS011;16323;51.130;6.612;2023-05-02T00:49:51;5.20;;;3.30;;
29320;SDS011;16323;51.130;6.612;2023-05-02T00:52:18;5.53;;;3.80;;
29320;SDS011;16323;51.130;6.612;2023-05-02T00:54:45;5.55;;;3.80;;
29320;SDS011;16323;51.130;6.612;2023-05-02T00:57:12;4.80;;;3.42;;
29320;SDS011;16323;51.130;6.612;2023-05-02T00:59:39;6.82;;;4.00;;
29320;SDS011;16323;51.130;6.612;2023-05-02T01:02:12;6.00;;;3.95;;
29320;SDS011;16323;51.130;6.612;2023-05-02T01:04:53;5.55;;;3.72;;
29320;SDS011;16323;51.130;6.612;2023-05-02T01:07:33;5.32;;;3.70;;
29320;SDS011;16323;51.130;6.612;2023-05-02T01:10:13;5.47;;;3.38;;
29320;SDS011;16323;51.130;6.612;2023-05-02T01:12:48;4.00;;;3.03;;
29320;SDS011;16323;51.130;6.612;2023-05-02T01:15:24;6.22;;;3.80;;
29320;SDS011;16323;51.130;6.612;2023-05-02T01:17:53;6.10;;;3.55;;
29320;SDS011;16323;51.130;6.612;2023-05-02T01:20:22;5.32;;;3.60;;
29320;SDS011;16323;51.130;6.612;2023-05-02T01:22:52;6.28;;;3.97;;
29320;SDS011;16323;51.130;6.612;2023-05-02T01:25:25;5.93;;;3.70;;
29320;SDS011;16323;51.130;6.612;2023-05-02T01:28:01;5.43;;;3.92;;
29320;SDS011;16323;51.130;6.612;2023-05-02T01:30:37;6.63;;;4.32;;
29320;SDS011;16323;51.130;6.612;2023-05-02T01:33:10;6.35;;;4.30;;
29320;SDS011;16323;51.130;6.612;2023-05-02T01:35:38;7.93;;;4.38;;
29320;SDS011;16323;51.130;6.612;2023-05-02T01:38:06;6.65;;;4.35;;
29320;SDS011;16323;51.130;6.612;2023-05-02T01:40:33;7.13;;;4.45;;
29320;SDS011;16323;51.130;6.612;2023-05-02T01:43:01;6.57;;;4.75;;
29320;SDS011;16323;51.130;6.612;2023-05-02T01:45:30;6.45;;;4.32;;
29320;SDS011;16323;51.130;6.612;2023-05-02T01:48:01;8.45;;;4.90;;
29320;SDS011;16323;51.130;6.612;2023-05-02T01:50:30;9.32;;;5.15;;
29320;SDS011;16323;51.130;6.612;2023-05-02T01:52:57;6.15;;;4.35;;
29320;SDS011;16323;51.130;6.612;2023-05-02T01:55:25;6.88;;;4.38;;
29320;SDS011;16323;51.130;6.612;2023-05-02T01:57:53;6.88;;;4.40;;
29320;SDS011;16323;51.130;6.612;2023-05-02T02:00:22;6.75;;;4.28;;
29320;SDS011;16323;51.130;6.612;2023-05-02T02:02:50;6.18;;;4.40;;
29320;SDS011;16323;51.130;6.612;2023-05-02T02:05:22;6.68;;;4.28;;
29320;SDS011;16323;51.130;6.612;2023-05-02T02:07:50;6.78;;;4.05;;
29320;SDS011;16323;51.130;6.612;2023-05-02T02:10:17;6.57;;;3.67;;
29320;SDS011;16323;51.130;6.612;2023-05-02T02:12:47;6.20;;;4.13;;
29320;SDS011;16323;51.130;6.612;2023-05-02T02:15:18;5.63;;;3.90;;
29320;SDS011;16323;51.130;6.612;2023-05-02T02:17:54;9.23;;;4.65;;
29320;SDS011;16323;51.130;6.612;2023-05-02T02:20:25;6.03;;;4.20;;
29320;SDS011;16323;51.130;6.612;2023-05-02T02:22:53;6.72;;;4.00;;
29320;SDS011;16323;51.130;6.612;2023-05-02T02:25:21;5.10;;;3.60;;
29320;SDS011;16323;51.130;6.612;2023-05-02T02:27:48;5.90;;;3.90;;
29320;SDS011;16323;51.130;6.612;2023-05-02T02:30:15;5.93;;;3.90;;
29320;SDS011;16323;51.130;6.612;2023-05-02T02:32:42;4.65;;;3.67;;
29320;SDS011;16323;51.130;6.612;2023-05-02T02:35:09;5.80;;;3.92;;
29320;SDS011;16323;51.130;6.612;2023-05-02T02:37:38;6.65;;;3.90;;
29320;SDS011;16323;51.130;6.612;2023-05-02T02:40:11;6.72;;;3.97;;
29320;SDS011;16323;51.130;6.612;2023-05-02T02:42:44;8.32;;;3.97;;
29320;SDS011;16323;51.130;6.612;2023-05-02T02:45:20;7.07;;;3.70;;
29320;SDS011;16323;51.130;6.612;2023-05-02T02:48:03;4.78;;;3.30;;
29320;SDS011;16323;51.130;6.612;2023-05-02T02:50:45;4.65;;;3.60;;
29320;SDS011;16323;51.130;6.612;2023-05-02T02:53:26;5.97;;;3.53;;
29320;SDS011;16323;51.130;6.612;2023-05-02T02:56:00;5.07;;;3.40;;
29320;SDS011;16323;51.130;6.612;2023-05-02T02:58:35;5.40;;;3.28;;
29320;SDS011;16323;51.130;6.612;2023-05-02T03:01:09;5.25;;;3.35;;
29320;SDS011;16323;51.130;6.612;2023-05-02T03:03:40;6.07;;;3.60;;
29320;SDS011;16323;51.130;6.612;2023-05-02T03:06:09;5.57;;;2.97;;
29320;SDS011;16323;51.130;6.612;2023-05-02T03:08:40;5.15;;;3.60;;
29320;SDS011;16323;51.130;6.612;2023-05-02T03:11:09;4.53;;;3.38;;
29320;SDS011;16323;51.130;6.612;2023-05-02T03:13:36;5.18;;;3.13;;
29320;SDS011;16323;51.130;6.612;2023-05-02T03:16:11;5.55;;;3.40;;
29320;SDS011;16323;51.130;6.612;2023-05-02T03:18:57;3.95;;;2.53;;
29320;SDS011;16323;51.130;6.612;2023-05-02T03:21:24;5.03;;;3.05;;
29320;SDS011;16323;51.130;6.612;2023-05-02T03:23:52;5.45;;;2.75;;
29320;SDS011;16323;51.130;6.612;2023-05-02T03:26:19;4.80;;;3.08;;
29320;SDS011;16323;51.130;6.612;2023-05-02T03:28:46;4.57;;;3.13;;
29320;SDS011;16323;51.130;6.612;2023-05-02T03:31:14;5.80;;;3.40;;
29320;SDS011;16323;51.130;6.612;2023-05-02T03:33:41;6.00;;;3.30;;
29320;SDS011;16323;51.130;6.612;2023-05-02T03:36:08;4.90;;;3.15;;
29320;SDS011;16323;51.130;6.612;2023-05-02T03:38:35;5.45;;;3.03;;
29320;SDS011;16323;51.130;6.612;2023-05-02T03:41:03;6.32;;;3.60;;
29320;SDS011;16323;51.130;6.612;2023-05-02T03:43:30;5.05;;;3.13;;
29320;SDS011;16323;51.130;6.612;2023-05-02T03:45:57;4.53;;;3.10;;
29320;SDS011;16323;51.130;6.612;2023-05-02T03:48:29;3.58;;;2.80;;
29320;SDS011;16323;51.130;6.612;2023-05-02T03:50:56;4.88;;;3.33;;
29320;SDS011;16323;51.130;6.612;2023-05-02T03:53:22;4.35;;;2.80;;
29320;SDS011;16323;51.130;6.612;2023-05-02T03:55:49;4.30;;;2.78;;
29320;SDS011;16323;51.130;6.612;2023-05-02T03:58:17;4.13;;;2.92;;
29320;SDS011;16323;51.130;6.612;2023-05-02T04:00:45;4.00;;;2.55;;
29320;SDS011;16323;51.130;6.612;2023-05-02T04:03:11;4.55;;;3.05;;
29320;SDS011;16323;51.130;6.612;2023-05-02T04:05:38;4.38;;;2.92;;
29320;SDS011;16323;51.130;6.612;2023-05-02T04:08:05;4.55;;;3.33;;
29320;SDS011;16323;51.130;6.612;2023-05-02T04:10:32;5.60;;;2.63;;
29320;SDS011;16323;51.130;6.612;2023-05-02T04:12:58;4.47;;;2.90;;
29320;SDS011;16323;51.130;6.612;2023-05-02T04:15:28;3.83;;;2.60;;
29320;SDS011;16323;51.130;6.612;2023-05-02T04:17:56;4.07;;;2.95;;
29320;SDS011;16323;51.130;6.612;2023-05-02T04:20:23;3.40;;;2.38;;
29320;SDS011;16323;51.130;6.612;2023-05-02T04:22:50;4.25;;;2.95;;
29320;SDS011;16323;51.130;6.612;2023-05-02T04:25:17;4.40;;;2.90;;
29320;SDS011;16323;51.130;6.612;2023-05-02T04:27:44;4.00;;;2.60;;
29320;SDS011;16323;51.130;6.612;2023-05-02T04:30:10;4.50;;;2.72;;
29320;SDS011;16323;51.130;6.612;2023-05-02T04:32:39;6.45;;;2.85;;
29320;SDS011;16323;51.130;6.612;2023-05-02T04:35:06;4.70;;;2.92;;
29320;SDS011;16323;51.130;6.612;2023-05-02T04:37:34;3.92;;;2.70;;
29320;SDS011;16323;51.130;6.612;2023-05-02T04:40:01;4.22;;;2.45;;
29320;SDS011;16323;51.130;6.612;2023-05-02T04:42:28;3.80;;;2.88;;
29320;SDS011;16323;51.130;6.612;2023-05-02T04:44:55;3.53;;;2.33;;
29320;SDS011;16323;51.130;6.612;2023-05-02T04:47:22;4.13;;;2.88;;
29320;SDS011;16323;51.130;6.612;2023-05-02T04:49:50;4.75;;;2.95;;
29320;SDS011;16323;51.130;6.612;2023-05-02T04:52:16;3.72;;;2.35;;
29320;SDS011;16323;51.130;6.612;2023-05-02T04:54:43;2.85;;;2.40;;
29320;SDS011;16323;51.130;6.612;2023-05-02T04:57:10;4.75;;;2.83;;
29320;SDS011;16323;51.130;6.612;2023-05-02T04:59:37;3.45;;;2.60;;
29320;SDS011;16323;51.130;6.612;2023-05-02T05:02:04;3.35;;;2.40;;
29320;SDS011;16323;51.130;6.612;2023-05-02T05:04:32;4.00;;;2.47;;
29320;SDS011;16323;51.130;6.612;2023-05-02T05:07:00;4.57;;;2.40;;
29320;SDS011;16323;51.130;6.612;2023-05-02T05:09:26;4.80;;;3.00;;
29320;SDS011;16323;51.130;6.612;2023-05-02T05:11:53;4.63;;;2.67;;
29320;SDS011;16323;51.130;6.612;2023-05-02T05:14:20;4.93;;;2.85;;
29320;SDS011;16323;51.130;6.612;2023-05-02T05:16:48;4.15;;;2.67;;
29320;SDS011;16323;51.130;6.612;2023-05-02T05:19:15;5.78;;;2.95;;
29320;SDS011;16323;51.130;6.612;2023-05-02T05:21:41;4.50;;;2.97;;
29320;SDS011;16323;51.130;6.612;2023-05-02T05:24:09;4.28;;;2.83;;
29320;SDS011;16323;51.130;6.612;2023-05-02T05:26:36;4.50;;;3.03;;
29320;SDS011;16323;51.130;6.612;2023-05-02T05:29:03;4.15;;;3.00;;
29320;SDS011;16323;51.130;6.612;2023-05-02T05:31:30;5.88;;;3.08;;
29320;SDS011;16323;51.130;6.612;2023-05-02T05:33:56;3.92;;;2.78;;
29320;SDS011;16323;51.130;6.612;2023-05-02T05:36:23;4.68;;;2.90;;
29320;SDS011;16323;51.130;6.612;2023-05-02T05:38:50;4.60;;;2.95;;
29320;SDS011;16323;51.130;6.612;2023-05-02T05:41:18;3.92;;;2.90;;
29320;SDS011;16323;51.130;6.612;2023-05-02T05:43:45;3.10;;;2.40;;
29320;SDS011;16323;51.130;6.612;2023-05-02T05:46:12;5.35;;;3.20;;
29320;SDS011;16323;51.130;6.612;2023-05-02T05:48:38;3.88;;;2.78;;
29320;SDS011;16323;51.130;6.612;2023-05-02T05:51:05;3.72;;;2.85;;
29320;SDS011;16323;51.130;6.612;2023-05-02T05:53:33;5.53;;;2.97;;
29320;SDS011;16323;51.130;6.612;2023-05-02T05:56:06;6.03;;;2.97;;
29320;SDS011;16323;51.130;6.612;2023-05-02T05:58:35;4.72;;;2.63;;
29320;SDS011;16323;51.130;6.612;2023-05-02T06:01:02;4.22;;;2.78;;
29320;SDS011;16323;51.130;6.612;2023-05-02T06:03:29;5.38;;;3.00;;
29320;SDS011;16323;51.130;6.612;2023-05-02T06:05:56;4.35;;;3.25;;
29320;SDS011;16323;51.130;6.612;2023-05-02T06:08:23;4.63;;;2.80;;
29320;SDS011;16323;51.130;6.612;2023-05-02T06:10:50;3.28;;;2.47;;
29320;SDS011;16323;51.130;6.612;2023-05-02T06:13:17;4.13;;;2.92;;
29320;SDS011;16323;51.130;6.612;2023-05-02T06:15:45;3.65;;;2.45;;
29320;SDS011;16323;51.130;6.612;2023-05-02T06:18:12;3.97;;;2.80;;
29320;SDS011;16323;51.130;6.612;2023-05-02T06:20:39;3.17;;;2.63;;
29320;SDS011;16323;51.130;6.612;2023-05-02T06:23:05;4.00;;;2.67;;
29320;SDS011;16323;51.130;6.612;2023-05-02T06:25:32;3.63;;;2.40;;
29320;SDS011;16323;51.130;6.612;2023-05-02T06:28:02;3.17;;;2.40;;
29320;SDS011;16323;51.130;6.612;2023-05-02T06:30:29;4.78;;;2.53;;
29320;SDS011;16323;51.130;6.612;2023-05-02T06:32:57;3.13;;;2.38;;
29320;SDS011;16323;51.130;6.612;2023-05-02T06:35:24;2.95;;;2.08;;
29320;SDS011;16323;51.130;6.612;2023-05-02T06:37:51;3.42;;;1.90;;
29320;SDS011;16323;51.130;6.612;2023-05-02T06:40:17;2.95;;;1.80;;
29320;SDS011;16323;51.130;6.612;2023-05-02T06:42:44;2.40;;;1.80;;
29320;SDS011;16323;51.130;6.612;2023-05-02T06:45:11;2.45;;;1.83;;
29320;SDS011;16323;51.130;6.612;2023-05-02T06:47:38;2.85;;;1.73;;
29320;SDS011;16323;51.130;6.612;2023-05-02T06:50:07;2.75;;;1.90;;
29320;SDS011;16323;51.130;6.612;2023-05-02T06:52:35;2.85;;;1.60;;
29320;SDS011;16323;51.130;6.612;2023-05-02T06:55:02;2.42;;;1.50;;
29320;SDS011;16323;51.130;6.612;2023-05-02T06:57:29;2.95;;;1.25;;
29320;SDS011;16323;51.130;6.612;2023-05-02T06:59:56;1.85;;;1.42;;
29320;SDS011;16323;51.130;6.612;2023-05-02T07:02:23;3.90;;;1.60;;
29320;SDS011;16323;51.130;6.612;2023-05-02T07:04:50;3.35;;;1.48;;
29320;SDS011;16323;51.130;6.612;2023-05-02T07:07:18;2.13;;;1.38;;
29320;SDS011;16323;51.130;6.612;2023-05-02T07:09:46;3.25;;;1.52;;
29320;SDS011;16323;51.130;6.612;2023-05-02T07:12:12;5.30;;;1.25;;
29320;SDS011;16323;51.130;6.612;2023-05-02T07:14:39;2.75;;;1.30;;
29320;SDS011;16323;51.130;6.612;2023-05-02T07:17:07;2.10;;;1.40;;
29320;SDS011;16323;51.130;6.612;2023-05-02T07:19:33;2.55;;;1.38;;
29320;SDS011;16323;51.130;6.612;2023-05-02T07:22:00;2.00;;;1.10;;
29320;SDS011;16323;51.130;6.612;2023-05-02T07:24:28;1.90;;;1.08;;
29320;SDS011;16323;51.130;6.612;2023-05-02T07:26:55;2.75;;;1.15;;
29320;SDS011;16323;51.130;6.612;2023-05-02T07:29:22;2.65;;;1.13;;
29320;SDS011;16323;51.130;6.612;2023-05-02T07:31:49;2.30;;;1.10;;
29320;SDS011;16323;51.130;6.612;2023-05-02T07:34:15;1.48;;;1.10;;
29320;SDS011;16323;51.130;6.612;2023-05-02T07:36:42;1.38;;;0.98;;
29320;SDS011;16323;51.130;6.612;2023-05-02T07:39:09;1.65;;;1.05;;
29320;SDS011;16323;51.130;6.612;2023-05-02T07:41:37;1.80;;;1.00;;
29320;SDS011;16323;51.130;6.612;2023-05-02T07:44:04;3.15;;;0.90;;
29320;SDS011;16323;51.130;6.612;2023-05-02T07:46:31;2.40;;;0.90;;
29320;SDS011;16323;51.130;6.612;2023-05-02T07:48:57;1.27;;;0.82;;
29320;SDS011;16323;51.130;6.612;2023-05-02T07:51:24;2.75;;;1.15;;
29320;SDS011;16323;51.130;6.612;2023-05-02T07:53:52;1.75;;;1.10;;
29320;SDS011;16323;51.130;6.612;2023-05-02T07:56:22;1.02;;;0.60;;
29320;SDS011;16323;51.130;6.612;2023-05-02T07:58:50;1.55;;;0.70;;
29320;SDS011;16323;51.130;6.612;2023-05-02T08:01:17;1.77;;;0.93;;
29320;SDS011;16323;51.130;6.612;2023-05-02T08:03:44;2.03;;;0.80;;
29320;SDS011;16323;51.130;6.612;2023-05-02T08:06:11;2.75;;;0.70;;
29320;SDS011;16323;51.130;6.612;2023-05-02T08:08:38;1.50;;;0.73;;
29320;SDS011;16323;51.130;6.612;2023-05-02T08:11:05;1.90;;;0.80;;
29320;SDS011;16323;51.130;6.612;2023-05-02T08:13:31;2.40;;;1.08;;
29320;SDS011;16323;51.130;6.612;2023-05-02T08:16:00;0.75;;;0.60;;
29320;SDS011;16323;51.130;6.612;2023-05-02T08:18:27;2.47;;;0.70;;
29320;SDS011;16323;51.130;6.612;2023-05-02T08:20:53;2.22;;;1.00;;
29320;SDS011;16323;51.130;6.612;2023-05-02T08:23:22;1.58;;;0.80;;
29320;SDS011;16323;51.130;6.612;2023-05-02T08:25:49;1.25;;;0.90;;
29320;SDS011;16323;51.130;6.612;2023-05-02T08:28:16;2.63;;;0.80;;
29320;SDS011;16323;51.130;6.612;2023-05-02T08:30:43;2.40;;;0.93;;
29320;SDS011;16323;51.130;6.612;2023-05-02T08:33:11;1.38;;;0.70;;
29320;SDS011;16323;51.130;6.612;2023-05-02T08:35:38;1.10;;;0.80;;
29320;SDS011;16323;51.130;6.612;2023-05-02T08:38:05;2.17;;;0.77;;
29320;SDS011;16323;51.130;6.612;2023-05-02T08:40:34;1.20;;;0.80;;
29320;SDS011;16323;51.130;6.612;2023-05-02T08:43:02;1.55;;;0.70;;
29320;SDS011;16323;51.130;6.612;2023-05-02T08:45:30;1.35;;;0.85;;
29320;SDS011;16323;51.130;6.612;2023-05-02T08:48:03;2.92;;;0.88;;
29320;SDS011;16323;51.130;6.612;2023-05-02T08:50:33;3.35;;;0.90;;
29320;SDS011;16323;51.130;6.612;2023-05-02T08:53:03;2.63;;;0.70;;
29320;SDS011;16323;51.130;6.612;2023-05-02T08:55:31;2.35;;;0.85;;
29320;SDS011;16323;51.130;6.612;2023-05-02T08:57:59;1.23;;;0.85;;
29320;SDS011;16323;51.130;6.612;2023-05-02T09:00:28;2.22;;;0.80;;
29320;SDS011;16323;51.130;6.612;2023-05-02T09:02:58;2.88;;;0.75;;
29320;SDS011;16323;51.130;6.612;2023-05-02T09:05:35;1.92;;;0.88;;
29320;SDS011;16323;51.130;6.612;2023-05-02T09:08:05;1.95;;;0.75;;
29320;SDS011;16323;51.130;6.612;2023-05-02T09:10:33;2.03;;;0.80;;
29320;SDS011;16323;51.130;6.612;2023-05-02T09:15:56;1.45;;;0.60;;
29320;SDS011;16323;51.130;6.612;2023-05-02T09:18:24;1.33;;;0.68;;
29320;SDS011;16323;51.130;6.612;2023-05-02T09:20:55;2.10;;;0.65;;
29320;SDS011;16323;51.130;6.612;2023-05-02T09:23:30;1.95;;;0.60;;
29320;SDS011;16323;51.130;6.612;2023-05-02T09:25:58;1.95;;;0.70;;
29320;SDS011;16323;51.130;6.612;2023-05-02T09:28:38;2.25;;;0.55;;
29320;SDS011;16323;51.130;6.612;2023-05-02T09:31:07;2.28;;;0.80;;
29320;SDS011;16323;51.130;6.612;2023-05-02T09:33:35;2.03;;;0.70;;
29320;SDS011;16323;51.130;6.612;2023-05-02T09:36:03;0.90;;;0.60;;
29320;SDS011;16323;51.130;6.612;2023-05-02T09:38:31;3.13;;;0.95;;
29320;SDS011;16323;51.130;6.612;2023-05-02T09:40:59;1.88;;;0.73;;
29320;SDS011;16323;51.130;6.612;2023-05-02T09:43:27;2.92;;;0.90;;
29320;SDS011;16323;51.130;6.612;2023-05-02T09:45:58;1.60;;;0.70;;
29320;SDS011;16323;51.130;6.612;2023-05-02T09:48:26;1.35;;;0.65;;
29320;SDS011;16323;51.130;6.612;2023-05-02T09:50:53;3.53;;;0.90;;
29320;SDS011;16323;51.130;6.612;2023-05-02T09:53:22;2.28;;;0.80;;
29320;SDS011;16323;51.130;6.612;2023-05-02T09:55:58;1.98;;;0.77;;
29320;SDS011;16323;51.130;6.612;2023-05-02T09:58:25;3.90;;;0.80;;
29320;SDS011;16323;51.130;6.612;2023-05-02T10:00:52;1.48;;;0.60;;
29320;SDS011;16323;51.130;6.612;2023-05-02T10:03:19;1.50;;;0.77;;
29320;SDS011;16323;51.130;6.612;2023-05-02T10:05:49;3.63;;;0.65;;
29320;SDS011;16323;51.130;6.612;2023-05-02T10:08:18;1.65;;;0.90;;
29320;SDS011;16323;51.130;6.612;2023-05-02T10:10:49;1.40;;;0.82;;
29320;SDS011;16323;51.130;6.612;2023-05-02T10:13:18;1.48;;;0.70;;
29320;SDS011;16323;51.130;6.612;2023-05-02T10:15:48;2.05;;;0.80;;
29320;SDS011;16323;51.130;6.612;2023-05-02T10:18:20;1.45;;;0.68;;
29320;SDS011;16323;51.130;6.612;2023-05-02T10:20:54;2.72;;;0.82;;
29320;SDS011;16323;51.130;6.612;2023-05-02T10:23:24;1.83;;;0.82;;
29320;SDS011;16323;51.130;6.612;2023-05-02T10:25:53;2.58;;;0.73;;
29320;SDS011;16323;51.130;6.612;2023-05-02T10:28:20;2.05;;;0.70;;
29320;SDS011;16323;51.130;6.612;2023-05-02T10:30:47;2.22;;;0.77;;
29320;SDS011;16323;51.130;6.612;2023-05-02T10:33:15;2.25;;;0.90;;
29320;SDS011;16323;51.130;6.612;2023-05-02T10:35:44;3.58;;;1.27;;
29320;SDS011;16323;51.130;6.612;2023-05-02T10:38:12;1.67;;;0.75;;
29320;SDS011;16323;51.130;6.612;2023-05-02T10:40:41;2.72;;;1.15;;
29320;SDS011;16323;51.130;6.612;2023-05-02T10:43:21;2.60;;;0.82;;
29320;SDS011;16323;51.130;6.612;2023-05-02T10:45:50;1.70;;;0.70;;
29320;SDS011;16323;51.130;6.612;2023-05-02T10:48:19;2.42;;;1.42;;
29320;SDS011;16323;51.130;6.612;2023-05-02T10:50:47;2.03;;;0.80;;
29320;SDS011;16323;51.130;6.612;2023-05-02T10:53:25;2.05;;;1.10;;
29320;SDS011;16323;51.130;6.612;2023-05-02T10:58:46;0.90;;;0.60;;
29320;SDS011;16323;51.130;6.612;2023-05-02T11:01:33;1.65;;;0.75;;
29320;SDS011;16323;51.130;6.612;2023-05-02T11:04:04;1.80;;;0.77;;
29320;SDS011;16323;51.130;6.612;2023-05-02T11:06:32;0.95;;;0.82;;
29320;SDS011;16323;51.130;6.612;2023-05-02T11:12:00;3.58;;;1.10;;
29320;SDS011;16323;51.130;6.612;2023-05-02T11:14:42;4.00;;;1.08;;
29320;SDS011;16323;51.130;6.612;2023-05-02T11:17:16;2.72;;;0.88;;
29320;SDS011;16323;51.130;6.612;2023-05-02T11:22:48;4.32;;;1.02;;
29320;SDS011;16323;51.130;6.612;2023-05-02T11:25:28;2.00;;;0.80;;
29320;SDS011;16323;51.130;6.612;2023-05-02T11:27:59;2.47;;;0.80;;
29320;SDS011;16323;51.130;6.612;2023-05-02T11:30:37;3.15;;;0.88;;
29320;SDS011;16323;51.130;6.612;2023-05-02T11:33:14;2.58;;;0.77;;
29320;SDS011;16323;51.130;6.612;2023-05-02T11:35:44;1.27;;;0.80;;
29320;SDS011;16323;51.130;6.612;2023-05-02T11:38:12;2.80;;;1.00;;
29320;SDS011;16323;51.130;6.612;2023-05-02T11:40:56;2.60;;;0.80;;
29320;SDS011;16323;51.130;6.612;2023-05-02T11:43:24;2.13;;;0.90;;
29320;SDS011;16323;51.130;6.612;2023-05-02T11:45:54;1.88;;;0.95;;
29320;SDS011;16323;51.130;6.612;2023-05-02T11:48:23;2.35;;;0.90;;
29320;SDS011;16323;51.130;6.612;2023-05-02T11:50:52;2.35;;;0.88;;
29320;SDS011;16323;51.130;6.612;2023-05-02T11:53:21;5.00;;;1.17;;
29320;SDS011;16323;51.130;6.612;2023-05-02T11:55:50;2.25;;;0.90;;
29320;SDS011;16323;51.130;6.612;2023-05-02T11:58:18;4.10;;;1.00;;
29320;SDS011;16323;51.130;6.612;2023-05-02T12:00:46;1.17;;;0.70;;
29320;SDS011;16323;51.130;6.612;2023-05-02T12:03:22;1.77;;;0.85;;
29320;SDS011;16323;51.130;6.612;2023-05-02T12:05:53;1.30;;;0.73;;
29320;SDS011;16323;51.130;6.612;2023-05-02T12:08:21;1.80;;;0.88;;
29320;SDS011;16323;51.130;6.612;2023-05-02T12:10:49;3.00;;;1.20;;
29320;SDS011;16323;51.130;6.612;2023-05-02T12:13:17;1.70;;;1.05;;
29320;SDS011;16323;51.130;6.612;2023-05-02T12:15:45;2.33;;;0.98;;
29320;SDS011;16323;51.130;6.612;2023-05-02T12:18:13;1.55;;;0.70;;
29320;SDS011;16323;51.130;6.612;2023-05-02T12:20:42;2.83;;;0.80;;
29320;SDS011;16323;51.130;6.612;2023-05-02T12:23:09;1.25;;;0.80;;
29320;SDS011;16323;51.130;6.612;2023-05-02T12:25:37;1.75;;;0.90;;
29320;SDS011;16323;51.130;6.612;2023-05-02T12:28:05;1.05;;;0.70;;
29320;SDS011;16323;51.130;6.612;2023-05-02T12:30:32;1.35;;;0.73;;
29320;SDS011;16323;51.130;6.612;2023-05-02T12:33:00;2.75;;;0.77;;
29320;SDS011;16323;51.130;6.612;2023-05-02T12:35:27;1.92;;;0.90;;
29320;SDS011;16323;51.130;6.612;2023-05-02T12:38:08;1.30;;;0.70;;
29320;SDS011;16323;51.130;6.612;2023-05-02T12:40:36;1.67;;;0.70;;
29320;SDS011;16323;51.130;6.612;2023-05-02T12:43:04;2.00;;;0.80;;
29320;SDS011;16323;51.130;6.612;2023-05-02T12:45:34;3.05;;;1.05;;
29320;SDS011;16323;51.130;6.612;2023-05-02T12:48:16;2.08;;;0.60;;
29320;SDS011;16323;51.130;6.612;2023-05-02T12:50:44;1.73;;;0.80;;
29320;SDS011;16323;51.130;6.612;2023-05-02T12:53:12;1.50;;;0.80;;
29320;SDS011;16323;51.130;6.612;2023-05-02T12:55:39;1.17;;;0.50;;
29320;SDS011;16323;51.130;6.612;2023-05-02T12:58:06;1.73;;;0.80;;
29320;SDS011;16323;51.130;6.612;2023-05-02T13:00:35;1.15;;;0.63;;
29320;SDS011;16323;51.130;6.612;2023-05-02T13:03:03;2.42;;;0.98;;
29320;SDS011;16323;51.130;6.612;2023-05-02T13:05:30;1.75;;;0.60;;
29320;SDS011;16323;51.130;6.612;2023-05-02T13:07:57;1.63;;;0.82;;
29320;SDS011;16323;51.130;6.612;2023-05-02T13:10:25;2.67;;;1.13;;
29320;SDS011;16323;51.130;6.612;2023-05-02T13:12:53;2.28;;;0.60;;
29320;SDS011;16323;51.130;6.612;2023-05-02T13:15:20;1.60;;;0.60;;
29320;SDS011;16323;51.130;6.612;2023-05-02T13:17:49;2.08;;;0.98;;
29320;SDS011;16323;51.130;6.612;2023-05-02T13:20:16;2.25;;;0.90;;
29320;SDS011;16323;51.130;6.612;2023-05-02T13:22:43;1.42;;;0.70;;
29320;SDS011;16323;51.130;6.612;2023-05-02T13:25:09;1.52;;;0.93;;
29320;SDS011;16323;51.130;6.612;2023-05-02T13:27:37;2.83;;;0.88;;
29320;SDS011;16323;51.130;6.612;2023-05-02T13:30:05;1.58;;;0.73;;
29320;SDS011;16323;51.130;6.612;2023-05-02T13:32:33;1.15;;;0.88;;
29320;SDS011;16323;51.130;6.612;2023-05-02T13:35:00;0.85;;;0.63;;
29320;SDS011;16323;51.130;6.612;2023-05-02T13:37:27;3.03;;;0.85;;
29320;SDS011;16323;51.130;6.612;2023-05-02T13:39:54;2.45;;;0.70;;
29320;SDS011;16323;51.130;6.612;2023-05-02T13:42:21;2.42;;;1.00;;
29320;SDS011;16323;51.130;6.612;2023-05-02T13:44:49;1.52;;;0.80;;
29320;SDS011;16323;51.130;6.612;2023-05-02T13:47:16;2.08;;;0.70;;
29320;SDS011;16323;51.130;6.612;2023-05-02T13:49:42;1.80;;;0.68;;
29320;SDS011;16323;51.130;6.612;2023-05-02T13:52:10;1.08;;;0.70;;
29320;SDS011;16323;51.130;6.612;2023-05-02T13:54:36;1.30;;;0.75;;
29320;SDS011;16323;51.130;6.612;2023-05-02T13:57:03;2.17;;;0.80;;
29320;SDS011;16323;51.130;6.612;2023-05-02T13:59:30;2.25;;;0.80;;
29320;SDS011;16323;51.130;6.612;2023-05-02T14:01:58;1.90;;;0.60;;
29320;SDS011;16323;51.130;6.612;2023-05-02T14:04:25;0.90;;;0.75;;
29320;SDS011;16323;51.130;6.612;2023-05-02T14:06:52;1.30;;;0.60;;
29320;SDS011;16323;51.130;6.612;2023-05-02T14:09:18;1.88;;;0.80;;
29320;SDS011;16323;51.130;6.612;2023-05-02T14:11:46;0.90;;;0.60;;
29320;SDS011;16323;51.130;6.612;2023-05-02T14:14:13;1.10;;;0.60;;
29320;SDS011;16323;51.130;6.612;2023-05-02T14:16:40;1.48;;;0.80;;
29320;SDS011;16323;51.130;6.612;2023-05-02T14:19:08;2.20;;;0.70;;
29320;SDS011;16323;51.130;6.612;2023-05-02T14:21:35;1.00;;;0.68;;
29320;SDS011;16323;51.130;6.612;2023-05-02T14:24:02;1.80;;;0.70;;
29320;SDS011;16323;51.130;6.612;2023-05-02T14:26:30;2.33;;;0.77;;
29320;SDS011;16323;51.130;6.612;2023-05-02T14:28:57;4.20;;;0.98;;
29320;SDS011;16323;51.130;6.612;2023-05-02T14:31:24;0.77;;;0.65;;
29320;SDS011;16323;51.130;6.612;2023-05-02T14:33:51;1.95;;;0.75;;
29320;SDS011;16323;51.130;6.612;2023-05-02T14:36:19;1.13;;;0.70;;
29320;SDS011;16323;51.130;6.612;2023-05-02T14:38:46;1.13;;;0.60;;
29320;SDS011;16323;51.130;6.612;2023-05-02T14:41:13;1.75;;;0.60;;
29320;SDS011;16323;51.130;6.612;2023-05-02T14:43:40;1.05;;;0.70;;
29320;SDS011;16323;51.130;6.612;2023-05-02T14:46:06;2.30;;;0.63;;
29320;SDS011;16323;51.130;6.612;2023-05-02T14:48:33;1.35;;;0.60;;
29320;SDS011;16323;51.130;6.612;2023-05-02T14:51:01;2.13;;;0.70;;
29320;SDS011;16323;51.130;6.612;2023-05-02T14:53:30;1.40;;;0.80;;
29320;SDS011;16323;51.130;6.612;2023-05-02T14:55:57;1.10;;;0.80;;
29320;SDS011;16323;51.130;6.612;2023-05-02T14:58:24;1.83;;;0.82;;
29320;SDS011;16323;51.130;6.612;2023-05-02T15:00:51;2.05;;;0.70;;
29320;SDS011;16323;51.130;6.612;2023-05-02T15:03:18;2.03;;;0.77;;
29320;SDS011;16323;51.130;6.612;2023-05-02T15:05:44;2.05;;;0.80;;
29320;SDS011;16323;51.130;6.612;2023-05-02T15:08:11;1.38;;;0.52;;